createdAt,value
2018-08-25T00:00:29.787Z,16.30
2018-08-25T00:02:58.214Z,18.00
2018-08-25T00:05:26.681Z,15.37
2018-08-25T00:07:55.071Z,16.23
2018-08-25T00:10:23.449Z,13.87
2018-08-25T00:12:51.793Z,14.67
2018-08-25T00:15:20.313Z,13.23
2018-08-25T00:17:48.885Z,14.00
2018-08-25T00:20:17.311Z,13.10
2018-08-25T00:22:45.718Z,12.97
2018-08-25T00:25:14.066Z,14.33
2018-08-25T00:27:43.364Z,13.33
2018-08-25T00:30:17.184Z,15.57
2018-08-25T00:32:45.657Z,12.27
2018-08-25T00:35:14.048Z,13.93
2018-08-25T00:37:42.428Z,12.33
2018-08-25T00:40:10.872Z,12.63
2018-08-25T00:42:39.306Z,13.30
2018-08-25T00:45:07.832Z,12.53
2018-08-25T00:47:36.243Z,13.70
2018-08-25T00:50:04.760Z,12.27
2018-08-25T00:52:33.166Z,15.03
2018-08-25T00:55:01.509Z,13.50
2018-08-25T00:57:30.039Z,12.80
2018-08-25T00:59:58.434Z,12.83
2018-08-25T01:02:26.843Z,12.60
2018-08-25T01:04:55.658Z,12.80
2018-08-25T01:07:24.056Z,13.27
2018-08-25T01:09:52.422Z,12.27
2018-08-25T01:12:20.836Z,12.13
2018-08-25T01:14:49.198Z,15.00
2018-08-25T01:17:17.594Z,12.07
2018-08-25T01:19:45.986Z,12.83
2018-08-25T01:22:14.353Z,12.77
2018-08-25T01:24:42.712Z,13.13
2018-08-25T01:27:11.103Z,14.73
2018-08-25T01:29:39.463Z,13.87
2018-08-25T01:32:07.844Z,14.77
2018-08-25T01:34:36.190Z,14.60
2018-08-25T01:37:04.933Z,15.97
2018-08-25T01:39:33.277Z,16.43
2018-08-25T01:42:01.657Z,16.93
2018-08-25T01:44:30.083Z,16.87
2018-08-25T01:46:58.453Z,16.63
2018-08-25T01:49:26.832Z,16.93
2018-08-25T01:51:55.185Z,18.20
2018-08-25T01:54:23.597Z,16.63
2018-08-25T01:56:52.093Z,17.23
2018-08-25T01:59:20.507Z,17.50
2018-08-25T02:01:48.911Z,15.63
2018-08-25T02:04:17.299Z,18.40
2018-08-25T02:06:45.639Z,17.90
2018-08-25T02:09:14.387Z,18.40
2018-08-25T02:11:42.780Z,17.63
2018-08-25T02:14:11.571Z,18.53
2018-08-25T02:16:40.756Z,16.87
2018-08-25T02:19:09.206Z,16.60
2018-08-25T02:21:37.691Z,17.27
2018-08-25T02:24:06.423Z,15.70
2018-08-25T02:26:34.815Z,16.33
2018-08-25T02:29:03.513Z,16.73
2018-08-25T02:31:31.982Z,16.10
2018-08-25T02:34:00.451Z,16.03
2018-08-25T02:36:28.848Z,16.30
2018-08-25T02:38:57.211Z,15.30
2018-08-25T02:41:25.548Z,15.43
2018-08-25T02:43:53.907Z,15.57
2018-08-25T02:46:22.268Z,15.40
2018-08-25T02:48:50.908Z,14.97
2018-08-25T02:51:19.349Z,16.87
2018-08-25T02:53:47.709Z,14.83
2018-08-25T02:56:16.063Z,14.77
2018-08-25T02:58:44.456Z,15.80
2018-08-25T03:01:12.856Z,16.20
2018-08-25T03:03:41.218Z,15.53
2018-08-25T03:06:09.589Z,15.67
2018-08-25T03:08:38.674Z,16.13
2018-08-25T03:11:07.125Z,16.40
2018-08-25T03:13:35.604Z,16.40
2018-08-25T03:16:03.997Z,15.37
2018-08-25T03:18:32.374Z,16.67
2018-08-25T03:21:00.763Z,16.97
2018-08-25T03:23:29.162Z,16.80
2018-08-25T03:25:57.538Z,17.63
2018-08-25T03:28:25.917Z,16.33
2018-08-25T03:30:54.327Z,16.17
2018-08-25T03:33:22.716Z,17.13
2018-08-25T03:35:51.199Z,17.30
2018-08-25T03:38:19.564Z,16.67
2018-08-25T03:40:48.013Z,17.07
2018-08-25T03:43:16.404Z,15.17
2018-08-25T03:45:44.768Z,16.40
2018-08-25T03:48:13.151Z,14.67
2018-08-25T03:50:44.335Z,15.70
2018-08-25T03:53:12.719Z,15.17
2018-08-25T03:55:41.103Z,14.07
2018-08-25T03:58:09.515Z,15.40
2018-08-25T04:00:37.929Z,15.80
2018-08-25T04:03:06.304Z,13.70
2018-08-25T04:05:34.739Z,14.77
2018-08-25T04:08:03.115Z,13.70
2018-08-25T04:10:31.994Z,14.13
2018-08-25T04:13:00.371Z,13.87
2018-08-25T04:15:28.761Z,12.63
2018-08-25T04:17:57.471Z,13.47
2018-08-25T04:20:25.856Z,12.87
2018-08-25T04:22:54.228Z,13.30
2018-08-25T04:25:22.591Z,12.23
2018-08-25T04:27:52.034Z,12.83
2018-08-25T04:30:20.623Z,12.73
2018-08-25T04:32:49.163Z,12.43
2018-08-25T04:35:17.609Z,11.90
2018-08-25T04:37:46.024Z,13.20
2018-08-25T04:40:14.391Z,11.23
2018-08-25T04:42:42.824Z,12.57
2018-08-25T04:45:11.209Z,11.43
2018-08-25T04:47:39.614Z,11.90
2018-08-25T04:50:07.968Z,11.43
2018-08-25T04:52:36.424Z,10.73
2018-08-25T04:55:05.390Z,11.10
2018-08-25T04:57:33.786Z,10.87
2018-08-25T05:00:02.189Z,11.07
2018-08-25T05:02:30.575Z,10.27
2018-08-25T05:04:58.956Z,9.67
2018-08-25T05:07:27.318Z,10.17
2018-08-25T05:09:57.230Z,10.00
2018-08-25T05:12:25.612Z,10.53
2018-08-25T05:14:55.638Z,10.40
2018-08-25T05:17:24.162Z,9.50
2018-08-25T05:19:52.563Z,8.53
2018-08-25T05:22:21.562Z,8.83
2018-08-25T05:24:49.930Z,9.17
2018-08-25T05:27:18.323Z,8.87
2018-08-25T05:29:46.757Z,9.10
2018-08-25T05:32:15.142Z,8.80
2018-08-25T05:34:43.519Z,8.77
2018-08-25T05:37:12.335Z,9.03
2018-08-25T05:39:40.691Z,8.93
2018-08-25T05:42:09.187Z,8.47
2018-08-25T05:44:38.121Z,8.07
2018-08-25T05:47:06.533Z,7.40
2018-08-25T05:49:34.987Z,8.13
2018-08-25T05:52:03.395Z,8.80
2018-08-25T05:54:31.834Z,8.53
2018-08-25T05:57:00.232Z,8.20
2018-08-25T05:59:28.637Z,8.93
2018-08-25T06:01:57.109Z,8.13
2018-08-25T06:04:25.503Z,8.27
2018-08-25T06:06:53.841Z,7.70
2018-08-25T06:09:22.880Z,7.17
2018-08-25T06:11:51.283Z,7.40
2018-08-25T06:14:19.699Z,6.60
2018-08-25T06:16:48.122Z,6.33
2018-08-25T06:19:16.462Z,6.60
2018-08-25T06:21:44.883Z,6.10
2018-08-25T06:24:13.234Z,6.43
2018-08-25T06:26:41.654Z,6.17
2018-08-25T06:29:09.988Z,5.67
2018-08-25T06:31:38.370Z,5.60
2018-08-25T06:34:06.890Z,5.43
2018-08-25T06:36:35.345Z,7.40
2018-08-25T06:39:04.380Z,6.17
2018-08-25T06:41:32.744Z,5.90
2018-08-25T06:44:01.184Z,6.97
2018-08-25T06:46:29.564Z,7.50
2018-08-25T06:48:57.952Z,5.43
2018-08-25T06:51:26.302Z,6.13
2018-08-25T06:53:54.743Z,5.30
2018-08-25T06:56:23.179Z,6.83
2018-08-25T06:58:51.564Z,5.43
2018-08-25T07:01:19.888Z,9.00
2018-08-25T07:03:48.321Z,4.97
2018-08-25T07:06:16.756Z,6.07
2018-08-25T07:08:45.199Z,5.77
2018-08-25T07:11:13.628Z,5.30
2018-08-25T07:13:42.066Z,4.93
2018-08-25T07:16:10.479Z,6.70
2018-08-25T07:18:38.942Z,5.20
2018-08-25T07:21:07.346Z,5.30
2018-08-25T07:23:35.755Z,4.80
2018-08-25T07:26:04.199Z,7.30
2018-08-25T07:28:32.528Z,5.00
2018-08-25T07:31:00.917Z,5.17
2018-08-25T07:33:29.309Z,4.07
2018-08-25T07:35:57.803Z,4.63
2018-08-25T07:38:26.342Z,4.50
2018-08-25T07:40:54.635Z,4.43
2018-08-25T07:43:23.012Z,5.40
2018-08-25T07:45:51.387Z,4.00
2018-08-25T07:48:19.757Z,4.37
2018-08-25T07:50:48.233Z,4.13
2018-08-25T07:53:16.641Z,22.10
2018-08-25T07:55:44.983Z,5.33
2018-08-25T07:58:13.479Z,4.90
2018-08-25T08:00:42.299Z,4.70
2018-08-25T08:03:10.681Z,2.80
2018-08-25T08:05:39.257Z,4.37
2018-08-25T08:08:07.481Z,2.70
2018-08-25T08:10:35.889Z,3.57
2018-08-25T08:13:04.321Z,2.50
2018-08-25T08:15:32.695Z,3.27
2018-08-25T08:18:01.343Z,5.53
2018-08-25T08:20:29.799Z,2.23
2018-08-25T08:22:58.180Z,9.43
2018-08-25T08:25:26.561Z,4.57
2018-08-25T08:27:54.916Z,2.10
2018-08-25T08:30:23.340Z,2.33
2018-08-25T08:32:51.757Z,2.40
2018-08-25T08:35:20.096Z,2.03
2018-08-25T08:37:48.536Z,2.97
2018-08-25T08:40:16.960Z,2.47
2018-08-25T08:42:45.362Z,2.13
2018-08-25T08:45:13.772Z,2.23
2018-08-25T08:47:42.175Z,3.00
2018-08-25T08:50:11.028Z,2.13
2018-08-25T08:52:39.957Z,5.17
2018-08-25T08:55:08.706Z,2.00
2018-08-25T08:57:37.667Z,2.67
2018-08-25T09:00:06.369Z,4.83
2018-08-25T09:02:34.781Z,4.13
2018-08-25T09:05:03.710Z,2.70
2018-08-25T09:07:32.220Z,2.77
2018-08-25T09:10:00.607Z,2.20
2018-08-25T09:12:29.006Z,3.27
2018-08-25T09:14:57.422Z,2.63
2018-08-25T09:17:25.766Z,6.70
2018-08-25T09:19:54.131Z,3.00
2018-08-25T09:22:22.708Z,3.33
2018-08-25T09:24:51.379Z,2.10
2018-08-25T09:27:19.929Z,2.80
2018-08-25T09:29:48.296Z,2.13
2018-08-25T09:32:17.004Z,5.53
2018-08-25T09:34:45.408Z,4.03
2018-08-25T09:37:13.923Z,3.53
2018-08-25T09:39:42.335Z,2.73
2018-08-25T09:42:10.704Z,2.47
2018-08-25T09:44:39.041Z,2.23
2018-08-25T09:47:07.622Z,3.00
2018-08-25T09:49:36.255Z,4.20
2018-08-25T09:52:04.691Z,5.00
2018-08-25T09:54:33.109Z,4.77
2018-08-25T09:57:01.567Z,2.83
2018-08-25T09:59:30.006Z,5.33
2018-08-25T10:01:59.254Z,4.47
2018-08-25T10:04:28.348Z,3.93
2018-08-25T10:06:56.827Z,4.27
2018-08-25T10:09:25.259Z,6.33
2018-08-25T10:11:53.736Z,3.37
2018-08-25T10:14:22.262Z,2.83
2018-08-25T10:16:50.862Z,4.33
2018-08-25T10:19:19.185Z,2.93
2018-08-25T10:21:47.538Z,3.10
2018-08-25T10:24:16.011Z,4.00
2018-08-25T10:26:44.411Z,3.40
2018-08-25T10:29:12.794Z,2.67
2018-08-25T10:31:41.180Z,2.70
2018-08-25T10:34:09.556Z,4.63
2018-08-25T10:36:38.066Z,2.90
2018-08-25T10:39:10.840Z,4.47
2018-08-25T10:41:39.381Z,3.47
2018-08-25T10:44:08.396Z,2.87
2018-08-25T10:46:37.652Z,5.53
2018-08-25T10:49:06.304Z,3.90
2018-08-25T10:51:34.914Z,3.97
2018-08-25T10:54:03.412Z,2.93
2018-08-25T10:56:31.956Z,2.80
2018-08-25T10:59:00.426Z,6.20
2018-08-25T11:01:29.741Z,3.70
2018-08-25T11:03:58.247Z,2.50
2018-08-25T11:06:26.688Z,5.70
2018-08-25T11:08:55.305Z,3.50
2018-08-25T11:11:23.920Z,4.77
2018-08-25T11:13:52.332Z,3.87
2018-08-25T11:16:20.720Z,3.00
2018-08-25T11:18:49.093Z,4.77
2018-08-25T11:21:17.836Z,1.90
2018-08-25T11:23:46.244Z,4.37
2018-08-25T11:26:14.745Z,5.90
2018-08-25T11:28:43.228Z,6.03
2018-08-25T11:31:11.833Z,3.43
2018-08-25T11:33:40.226Z,6.63
2018-08-25T11:36:08.972Z,7.53
2018-08-25T11:38:37.388Z,6.17
2018-08-25T11:41:05.908Z,6.33
2018-08-25T11:43:34.345Z,4.23
2018-08-25T11:46:02.776Z,3.67
2018-08-25T11:48:31.197Z,4.43
2018-08-25T11:50:59.605Z,5.10
2018-08-25T11:53:27.982Z,3.53
2018-08-25T11:55:56.363Z,4.43
2018-08-25T11:58:24.761Z,3.60
2018-08-25T12:00:53.155Z,2.83
2018-08-25T12:03:21.519Z,2.40
2018-08-25T12:05:50.237Z,1.80
2018-08-25T12:08:18.653Z,4.47
2018-08-25T12:10:47.047Z,2.20
2018-08-25T12:13:15.419Z,2.60
2018-08-25T12:15:43.795Z,1.83
2018-08-25T12:18:12.233Z,2.87
2018-08-25T12:20:40.615Z,2.57
2018-08-25T12:23:08.975Z,2.23
2018-08-25T12:25:37.405Z,3.07
2018-08-25T12:28:05.950Z,2.20
2018-08-25T12:30:34.455Z,3.00
2018-08-25T12:33:03.703Z,2.67
2018-08-25T12:35:32.320Z,3.20
2018-08-25T12:38:00.694Z,1.13
2018-08-25T12:40:29.068Z,3.30
2018-08-25T12:42:57.472Z,1.83
2018-08-25T12:45:26.098Z,2.43
2018-08-25T12:47:55.180Z,1.77
2018-08-25T12:50:23.572Z,1.90
2018-08-25T12:52:51.961Z,2.63
2018-08-25T12:55:20.393Z,2.57
2018-08-25T12:57:48.834Z,2.10
2018-08-25T13:00:17.212Z,1.73
2018-08-25T13:02:45.650Z,1.80
2018-08-25T13:05:14.042Z,1.80
2018-08-25T13:07:42.439Z,1.83
2018-08-25T13:10:10.835Z,2.47
2018-08-25T13:12:39.219Z,3.63
2018-08-25T13:15:07.788Z,2.23
2018-08-25T13:17:38.100Z,2.03
2018-08-25T13:20:06.926Z,2.97
2018-08-25T13:22:35.295Z,2.80
2018-08-25T13:25:03.777Z,1.97
2018-08-25T13:27:32.089Z,2.80
2018-08-25T13:30:00.496Z,2.10
2018-08-25T13:32:28.924Z,1.07
2018-08-25T13:34:57.323Z,0.93
2018-08-25T13:37:25.690Z,2.23
2018-08-25T13:39:54.104Z,1.03
2018-08-25T13:42:22.503Z,1.23
2018-08-25T13:44:50.921Z,0.93
2018-08-25T13:47:19.321Z,0.90
2018-08-25T13:49:47.739Z,0.90
2018-08-25T13:52:16.804Z,0.90
2018-08-25T13:54:45.247Z,0.73
2018-08-25T13:57:13.674Z,0.90
2018-08-25T13:59:42.283Z,0.60
2018-08-25T14:02:11.047Z,1.47
2018-08-25T14:04:39.387Z,2.00
2018-08-25T14:07:07.855Z,2.03
2018-08-25T14:09:36.229Z,1.27
2018-08-25T14:12:04.739Z,1.10
2018-08-25T14:14:33.413Z,1.40
2018-08-25T14:17:01.786Z,0.53
2018-08-25T14:19:30.137Z,2.93
2018-08-25T14:21:58.587Z,1.10
2018-08-25T14:24:26.982Z,0.77
2018-08-25T14:26:55.507Z,1.13
2018-08-25T14:29:23.903Z,0.50
2018-08-25T14:31:52.249Z,0.70
2018-08-25T14:34:20.652Z,1.47
2018-08-25T14:36:49.034Z,0.60
2018-08-25T14:39:17.364Z,0.70
2018-08-25T14:41:45.811Z,1.60
2018-08-25T14:44:14.128Z,1.07
2018-08-25T14:46:42.498Z,3.97
2018-08-25T14:49:10.880Z,1.33
2018-08-25T14:51:39.284Z,3.27
2018-08-25T14:54:07.674Z,0.50
2018-08-25T14:56:36.103Z,0.97
2018-08-25T14:59:04.820Z,2.43
2018-08-25T15:01:33.208Z,0.67
2018-08-25T15:04:01.678Z,1.30
2018-08-25T15:06:30.080Z,1.87
2018-08-25T15:08:58.512Z,1.47
2018-08-25T15:11:26.937Z,1.83
2018-08-25T15:13:55.296Z,1.13
2018-08-25T15:16:23.688Z,0.70
2018-08-25T15:18:52.133Z,0.83
2018-08-25T15:21:20.552Z,1.53
2018-08-25T15:23:49.022Z,2.90
2018-08-25T15:26:17.440Z,0.90
2018-08-25T15:28:47.837Z,0.60
2018-08-25T15:31:16.237Z,1.10
2018-08-25T15:33:44.612Z,0.93
2018-08-25T15:36:12.992Z,2.07
2018-08-25T15:38:41.425Z,3.37
2018-08-25T15:41:09.839Z,1.57
2018-08-25T15:43:38.273Z,2.60
2018-08-25T15:46:06.658Z,2.30
2018-08-25T15:48:35.015Z,0.50
2018-08-25T15:51:03.440Z,1.37
2018-08-25T15:53:31.807Z,0.90
2018-08-25T15:56:00.217Z,0.97
2018-08-25T15:58:28.605Z,1.33
2018-08-25T16:00:57.040Z,1.37
2018-08-25T16:03:25.433Z,0.60
2018-08-25T16:05:53.932Z,0.80
2018-08-25T16:08:22.271Z,0.80
2018-08-25T16:10:50.788Z,1.20
2018-08-25T16:13:19.191Z,0.87
2018-08-25T16:15:47.613Z,4.57
2018-08-25T16:18:16.004Z,1.60
2018-08-25T16:20:44.379Z,1.30
2018-08-25T16:23:12.784Z,1.27
2018-08-25T16:25:41.226Z,1.83
2018-08-25T16:28:09.964Z,1.03
2018-08-25T16:30:38.361Z,1.33
2018-08-25T16:33:06.750Z,1.47
2018-08-25T16:35:35.144Z,1.73
2018-08-25T16:38:03.527Z,1.93
2018-08-25T16:40:31.936Z,3.10
2018-08-25T16:43:00.324Z,2.23
2018-08-25T16:45:28.719Z,1.70
2018-08-25T16:47:57.124Z,1.93
2018-08-25T16:50:25.566Z,1.40
2018-08-25T16:52:54.108Z,1.60
2018-08-25T16:55:22.723Z,3.00
2018-08-25T16:57:51.336Z,2.63
2018-08-25T17:00:19.754Z,1.33
2018-08-25T17:02:48.087Z,1.17
2018-08-25T17:05:16.464Z,1.10
2018-08-25T17:07:44.846Z,1.50
2018-08-25T17:10:13.250Z,1.23
2018-08-25T17:12:41.612Z,1.60
2018-08-25T17:15:10.063Z,2.53
2018-08-25T17:17:38.360Z,2.67
2018-08-25T17:20:06.758Z,3.17
2018-08-25T17:22:35.152Z,1.27
2018-08-25T17:25:03.532Z,0.80
2018-08-25T17:27:32.148Z,2.93
2018-08-25T17:30:00.536Z,0.80
2018-08-25T17:32:29.002Z,0.80
2018-08-25T17:34:57.396Z,1.10
2018-08-25T17:37:25.758Z,1.40
2018-08-25T17:39:54.171Z,1.33
2018-08-25T17:42:22.564Z,1.80
2018-08-25T17:44:51.528Z,1.17
2018-08-25T17:47:19.925Z,1.40
2018-08-25T17:49:48.333Z,1.33
2018-08-25T17:52:16.988Z,1.03
2018-08-25T17:54:45.453Z,1.57
2018-08-25T17:57:13.926Z,1.27
2018-08-25T17:59:42.187Z,1.40
2018-08-25T18:02:10.622Z,1.50
2018-08-25T18:04:39.135Z,1.60
2018-08-25T18:07:07.509Z,1.70
2018-08-25T18:09:35.919Z,1.40
2018-08-25T18:12:04.349Z,1.50
2018-08-25T18:14:32.739Z,1.47
2018-08-25T18:17:01.159Z,1.87
2018-08-25T18:19:29.615Z,1.53
2018-08-25T18:21:58.064Z,1.37
2018-08-25T18:24:26.435Z,1.40
2018-08-25T18:26:54.969Z,2.37
2018-08-25T18:29:23.379Z,2.00
2018-08-25T18:31:51.805Z,1.63
2018-08-25T18:34:20.119Z,3.10
2018-08-25T18:36:48.583Z,1.67
2018-08-25T18:39:16.903Z,1.47
2018-08-25T18:41:45.280Z,1.87
2018-08-25T18:44:14.456Z,3.17
2018-08-25T18:46:42.843Z,3.97
2018-08-25T18:49:11.252Z,1.60
2018-08-25T18:51:40.216Z,1.50
2018-08-25T18:54:08.549Z,1.47
2018-08-25T18:56:36.976Z,1.60
2018-08-25T18:59:05.670Z,2.20
2018-08-25T19:01:34.928Z,1.77
2018-08-25T19:04:03.451Z,1.40
2018-08-25T19:06:31.867Z,2.07
2018-08-25T19:09:00.347Z,1.60
2018-08-25T19:11:28.800Z,2.00
2018-08-25T19:13:57.241Z,2.93
2018-08-25T19:16:27.076Z,2.33
2018-08-25T19:18:55.490Z,3.23
2018-08-25T19:21:25.944Z,2.40
2018-08-25T19:23:55.421Z,2.70
2018-08-25T19:26:25.735Z,3.13
2018-08-25T19:28:54.125Z,4.23
2018-08-25T19:31:22.569Z,2.07
2018-08-25T19:33:51.745Z,2.23
2018-08-25T19:36:20.185Z,3.40
2018-08-25T19:38:48.651Z,2.40
2018-08-25T19:41:17.503Z,2.03
2018-08-25T19:43:45.869Z,2.57
2018-08-25T19:46:15.125Z,3.07
2018-08-25T19:48:43.557Z,3.87
2018-08-25T19:51:11.909Z,2.77
2018-08-25T19:53:40.317Z,5.33
2018-08-25T19:56:08.730Z,3.20
2018-08-25T19:58:37.198Z,3.53
2018-08-25T20:01:05.815Z,2.70
2018-08-25T20:03:34.401Z,3.00
2018-08-25T20:06:02.874Z,3.10
2018-08-25T20:08:31.776Z,2.93
2018-08-25T20:11:00.161Z,2.00
2018-08-25T20:13:28.631Z,4.77
2018-08-25T20:15:57.853Z,2.00
2018-08-25T20:18:27.315Z,3.70
2018-08-25T20:20:55.711Z,2.10
2018-08-25T20:23:24.007Z,2.23
2018-08-25T20:25:53.347Z,1.90
2018-08-25T20:28:22.347Z,3.60
2018-08-25T20:30:51.303Z,1.70
2018-08-25T20:33:19.690Z,2.47
2018-08-25T20:35:48.145Z,2.30
2018-08-25T20:38:16.960Z,2.10
2018-08-25T20:40:45.420Z,2.40
2018-08-25T20:43:13.864Z,2.23
2018-08-25T20:45:42.289Z,2.37
2018-08-25T20:48:10.624Z,2.37
2018-08-25T20:50:39.027Z,3.87
2018-08-25T20:53:07.396Z,2.60
2018-08-25T20:55:35.734Z,2.40
2018-08-25T20:58:04.179Z,2.50
2018-08-25T21:00:32.538Z,2.37
2018-08-25T21:03:00.980Z,3.33
2018-08-25T21:05:31.336Z,3.97
2018-08-25T21:07:59.671Z,3.83
2018-08-25T21:10:28.067Z,5.07
2018-08-25T21:12:56.415Z,3.93
2018-08-25T21:15:25.564Z,4.10
2018-08-25T21:17:54.351Z,6.67
2018-08-25T21:20:22.860Z,4.60
2018-08-25T21:22:51.311Z,4.40
2018-08-25T21:25:20.215Z,4.97
2018-08-25T21:27:49.704Z,3.40
2018-08-25T21:30:18.143Z,3.50
2018-08-25T21:32:46.488Z,3.27
2018-08-25T21:35:14.942Z,5.43
2018-08-25T21:37:43.922Z,3.73
2018-08-25T21:40:12.344Z,2.53
2018-08-25T21:42:40.698Z,2.40
2018-08-25T21:45:10.166Z,2.27
2018-08-25T21:47:38.694Z,2.70
2018-08-25T21:50:07.229Z,3.63
2018-08-25T21:52:35.645Z,4.13
2018-08-25T21:55:04.125Z,1.87
2018-08-25T21:57:32.771Z,2.57
2018-08-25T22:00:01.124Z,1.37
2018-08-25T22:02:29.637Z,3.30
2018-08-25T22:04:58.079Z,6.07
2018-08-25T22:07:26.555Z,2.63
2018-08-25T22:09:54.969Z,1.77
2018-08-25T22:12:23.341Z,1.10
2018-08-25T22:14:51.750Z,1.83
2018-08-25T22:17:20.135Z,2.60
2018-08-25T22:19:48.552Z,1.17
2018-08-25T22:22:17.359Z,1.73
2018-08-25T22:24:45.698Z,1.13
2018-08-25T22:27:14.127Z,1.43
2018-08-25T22:29:42.532Z,1.23
2018-08-25T22:32:10.990Z,1.10
2018-08-25T22:34:39.369Z,0.90
2018-08-25T22:37:07.999Z,0.93
2018-08-25T22:39:36.331Z,0.97
2018-08-25T22:42:05.032Z,1.17
2018-08-25T22:44:33.412Z,1.23
2018-08-25T22:47:01.916Z,1.23
2018-08-25T22:49:30.344Z,1.20
2018-08-25T22:51:58.713Z,1.37
2018-08-25T22:54:27.293Z,3.17
2018-08-25T22:56:55.664Z,1.07
2018-08-25T22:59:24.084Z,1.50
2018-08-25T23:01:52.468Z,1.53
2018-08-25T23:04:20.856Z,1.37
2018-08-25T23:06:49.186Z,2.47
2018-08-25T23:09:17.604Z,1.10
2018-08-25T23:11:45.997Z,1.67
2018-08-25T23:14:14.924Z,1.20
2018-08-25T23:16:43.342Z,2.70
2018-08-25T23:19:11.714Z,1.50
2018-08-25T23:21:40.072Z,1.30
2018-08-25T23:24:08.452Z,1.10
2018-08-25T23:26:36.930Z,2.60
2018-08-25T23:29:05.584Z,2.47
2018-08-25T23:31:33.973Z,1.80
2018-08-25T23:34:02.360Z,1.83
2018-08-25T23:36:30.959Z,2.27
2018-08-25T23:38:59.406Z,1.30
2018-08-25T23:41:27.853Z,1.23
2018-08-25T23:43:56.230Z,1.33
2018-08-25T23:46:24.626Z,1.20
2018-08-25T23:48:53.025Z,1.17
2018-08-25T23:51:21.498Z,1.80
2018-08-25T23:53:49.902Z,1.40
2018-08-25T23:56:18.303Z,4.33
2018-08-25T23:58:46.675Z,2.53
